This is the latest recevied weather packets stored in our database for station/object OH2MUI. If no packets are shown the sender has not sent any weather packets the latest 10 day(s).
| Time | Temp. | Humidity | Pressure | Rain* | Wind** | Luminosity | Snow |
|---|---|---|---|---|---|---|---|
| 1777566049 | 16.11° C | 59% | 1021.3 hPa | 0 mm | - | - | - |
| 1777562784 | 16.11° C | 60% | 1021.2 hPa | 0 mm | - | - | - |
| 1777561719 | 16.11° C | 60% | 1021.3 hPa | 0 mm | - | - | - |
| 1777559652 | 15.56° C | 60% | 1021.4 hPa | 0 mm | - | - | - |
| 1777558549 | 15.56° C | 61% | 1021.4 hPa | 0 mm | - | - | - |
| 1777557409 | 15.56° C | 61% | 1021.4 hPa | 0 mm | - | - | - |
| 1777556449 | 15.56° C | 61% | 1021.4 hPa | 0 mm | - | - | - |
| 1777555485 | 15.56° C | 61% | 1021.4 hPa | 0 mm | - | - | - |
| 1777554329 | 15.56° C | 62% | 1021.4 hPa | 0 mm | - | - | - |
| 1777552360 | 15.56° C | 62% | - | 0 mm | - | - | - |
| 1777552354 | 15.56° C | 62% | 1021.8 hPa | 0 mm | - | - | - |
| 1777551349 | 15° C | 63% | 1021.8 hPa | 0 mm | - | - | - |
| 1777549239 | 15° C | 65% | 1021.8 hPa | 0 mm | - | - | - |
| 1777547112 | 13.33° C | 67% | 1022 hPa | 0 mm | - | - | - |
| 1777544854 | 13.33° C | 70% | 1022.2 hPa | 0 mm | - | - | - |
| 1777543829 | 12.78° C | 71% | 1022.3 hPa | 0 mm | - | - | - |
| 1777542844 | 12.22° C | 73% | 1022.4 hPa | 0 mm | - | - | - |
| 1777541692 | 11.67° C | 74% | 1022.6 hPa | 0 mm | - | - | - |
| 1777540572 | 11.11° C | 77% | 1022.5 hPa | 0 mm | - | - | - |
| 1777539412 | 10.56° C | 79% | 1022.7 hPa | 0 mm | - | - | - |
| 1777538324 | 9.44° C | 84% | 1022.6 hPa | 0 mm | - | - | - |
| 1777537157 | 8.33° C | 88% | 1023 hPa | 0 mm | - | - | - |
| 1777535964 | 7.78° C | 90% | 1023 hPa | 0 mm | - | - | - |
| 1777534839 | 7.22° C | 91% | 1023 hPa | 0 mm | - | - | - |
| 1777534835 | 7.22° C | 91% | 1023 hPa | 0 mm | - | - | - |
* Rain latest hour (hover to see other rain measurements)
** Current wind speed in m/s (hover to see current wind gust speed)